sensor_id;sensor_type;location;lat;lon;timestamp;temperature;humidity
23289;DHT22;11813;50.834;4.280;2023-01-23T00:00:34;3.30;99.90
23289;DHT22;11813;50.834;4.280;2023-01-23T00:02:59;3.40;99.90
23289;DHT22;11813;50.834;4.280;2023-01-23T00:05:25;3.40;99.90
23289;DHT22;11813;50.834;4.280;2023-01-23T00:07:51;3.40;99.90
23289;DHT22;11813;50.834;4.280;2023-01-23T00:10:17;3.40;99.90
23289;DHT22;11813;50.834;4.280;2023-01-23T00:12:44;3.20;99.90
23289;DHT22;11813;50.834;4.280;2023-01-23T00:15:11;3.20;99.90
23289;DHT22;11813;50.834;4.280;2023-01-23T00:17:37;3.10;99.90
23289;DHT22;11813;50.834;4.280;2023-01-23T00:20:08;3.10;99.90
23289;DHT22;11813;50.834;4.280;2023-01-23T00:22:34;3.10;99.90
23289;DHT22;11813;50.834;4.280;2023-01-23T00:25:00;3.10;99.90
23289;DHT22;11813;50.834;4.280;2023-01-23T00:27:26;3.10;99.90
23289;DHT22;11813;50.834;4.280;2023-01-23T00:29:52;3.10;99.90
23289;DHT22;11813;50.834;4.280;2023-01-23T00:32:17;3.20;99.90
23289;DHT22;11813;50.834;4.280;2023-01-23T00:34:44;3.20;99.90
23289;DHT22;11813;50.834;4.280;2023-01-23T00:37:09;3.10;99.90
23289;DHT22;11813;50.834;4.280;2023-01-23T00:39:35;3.10;99.90
23289;DHT22;11813;50.834;4.280;2023-01-23T00:42:00;3.20;99.90
23289;DHT22;11813;50.834;4.280;2023-01-23T00:44:26;3.20;99.90
23289;DHT22;11813;50.834;4.280;2023-01-23T00:46:52;3.30;99.90
23289;DHT22;11813;50.834;4.280;2023-01-23T00:49:18;3.40;99.90
23289;DHT22;11813;50.834;4.280;2023-01-23T00:51:44;3.40;99.90
23289;DHT22;11813;50.834;4.280;2023-01-23T00:54:10;3.50;99.90
23289;DHT22;11813;50.834;4.280;2023-01-23T00:56:35;3.50;99.90
23289;DHT22;11813;50.834;4.280;2023-01-23T00:59:01;3.60;99.90
23289;DHT22;11813;50.834;4.280;2023-01-23T01:01:26;3.60;99.90
23289;DHT22;11813;50.834;4.280;2023-01-23T01:03:53;3.50;99.90
23289;DHT22;11813;50.834;4.280;2023-01-23T01:06:19;3.50;99.90
23289;DHT22;11813;50.834;4.280;2023-01-23T01:08:44;3.40;99.90
23289;DHT22;11813;50.834;4.280;2023-01-23T01:11:10;3.40;99.90
23289;DHT22;11813;50.834;4.280;2023-01-23T01:13:36;3.40;99.90
23289;DHT22;11813;50.834;4.280;2023-01-23T01:16:01;3.40;99.90
23289;DHT22;11813;50.834;4.280;2023-01-23T01:18:27;3.40;99.90
23289;DHT22;11813;50.834;4.280;2023-01-23T01:20:53;3.50;99.90
23289;DHT22;11813;50.834;4.280;2023-01-23T01:23:19;3.50;99.90
23289;DHT22;11813;50.834;4.280;2023-01-23T01:25:45;3.60;99.90
23289;DHT22;11813;50.834;4.280;2023-01-23T01:28:12;3.60;99.90
23289;DHT22;11813;50.834;4.280;2023-01-23T01:30:38;3.50;99.90
23289;DHT22;11813;50.834;4.280;2023-01-23T01:33:04;3.40;99.90
23289;DHT22;11813;50.834;4.280;2023-01-23T01:35:30;3.50;99.90
23289;DHT22;11813;50.834;4.280;2023-01-23T01:37:56;3.50;99.90
23289;DHT22;11813;50.834;4.280;2023-01-23T01:40:30;3.50;99.90
23289;DHT22;11813;50.834;4.280;2023-01-23T01:42:59;3.60;99.90
23289;DHT22;11813;50.834;4.280;2023-01-23T01:51:29;3.50;99.90
23289;DHT22;11813;50.834;4.280;2023-01-23T01:57:08;3.60;99.90
23289;DHT22;11813;50.834;4.280;2023-01-23T01:59:39;3.60;99.90
23289;DHT22;11813;50.834;4.280;2023-01-23T02:02:11;3.70;99.90
23289;DHT22;11813;50.834;4.280;2023-01-23T02:04:43;3.70;99.90
23289;DHT22;11813;50.834;4.280;2023-01-23T02:07:16;3.90;99.90
23289;DHT22;11813;50.834;4.280;2023-01-23T02:09:43;3.80;99.90
23289;DHT22;11813;50.834;4.280;2023-01-23T02:12:09;3.60;99.90
23289;DHT22;11813;50.834;4.280;2023-01-23T02:14:34;3.60;99.90
23289;DHT22;11813;50.834;4.280;2023-01-23T02:17:00;3.60;99.90
23289;DHT22;11813;50.834;4.280;2023-01-23T02:22:03;3.50;99.90
23289;DHT22;11813;50.834;4.280;2023-01-23T02:24:38;3.50;99.90
23289;DHT22;11813;50.834;4.280;2023-01-23T02:27:05;3.60;99.90
23289;DHT22;11813;50.834;4.280;2023-01-23T02:29:42;3.60;99.90
23289;DHT22;11813;50.834;4.280;2023-01-23T02:32:08;3.50;99.90
23289;DHT22;11813;50.834;4.280;2023-01-23T02:34:34;3.50;99.90
23289;DHT22;11813;50.834;4.280;2023-01-23T02:37:00;3.40;99.90
23289;DHT22;11813;50.834;4.280;2023-01-23T02:39:27;3.60;99.90
23289;DHT22;11813;50.834;4.280;2023-01-23T02:41:53;3.40;99.90
23289;DHT22;11813;50.834;4.280;2023-01-23T02:44:28;3.40;99.90
23289;DHT22;11813;50.834;4.280;2023-01-23T02:46:58;3.40;99.90
23289;DHT22;11813;50.834;4.280;2023-01-23T02:49:24;3.50;99.90
23289;DHT22;11813;50.834;4.280;2023-01-23T02:51:51;3.40;99.90
23289;DHT22;11813;50.834;4.280;2023-01-23T02:54:18;3.40;99.90
23289;DHT22;11813;50.834;4.280;2023-01-23T02:56:43;3.40;99.90
23289;DHT22;11813;50.834;4.280;2023-01-23T02:59:09;3.60;99.90
23289;DHT22;11813;50.834;4.280;2023-01-23T03:01:54;3.60;99.90
23289;DHT22;11813;50.834;4.280;2023-01-23T03:04:20;3.60;99.90
23289;DHT22;11813;50.834;4.280;2023-01-23T03:06:45;3.70;99.90
23289;DHT22;11813;50.834;4.280;2023-01-23T03:09:14;3.70;99.90
23289;DHT22;11813;50.834;4.280;2023-01-23T03:11:43;3.70;99.90
23289;DHT22;11813;50.834;4.280;2023-01-23T03:14:15;3.60;99.90
23289;DHT22;11813;50.834;4.280;2023-01-23T03:16:41;3.70;99.90
23289;DHT22;11813;50.834;4.280;2023-01-23T03:19:08;3.80;99.90
23289;DHT22;11813;50.834;4.280;2023-01-23T03:21:37;3.70;99.90
23289;DHT22;11813;50.834;4.280;2023-01-23T03:24:05;3.70;99.90
23289;DHT22;11813;50.834;4.280;2023-01-23T03:26:31;3.80;99.90
23289;DHT22;11813;50.834;4.280;2023-01-23T03:28:56;3.80;99.90
23289;DHT22;11813;50.834;4.280;2023-01-23T03:31:41;3.90;99.90
23289;DHT22;11813;50.834;4.280;2023-01-23T03:34:06;3.80;99.90
23289;DHT22;11813;50.834;4.280;2023-01-23T03:36:33;3.70;99.90
23289;DHT22;11813;50.834;4.280;2023-01-23T03:39:05;3.80;99.90
23289;DHT22;11813;50.834;4.280;2023-01-23T03:41:49;3.90;99.90
23289;DHT22;11813;50.834;4.280;2023-01-23T03:44:16;3.80;99.90
23289;DHT22;11813;50.834;4.280;2023-01-23T03:46:44;3.70;99.90
23289;DHT22;11813;50.834;4.280;2023-01-23T03:49:09;3.70;99.90
23289;DHT22;11813;50.834;4.280;2023-01-23T03:51:35;3.60;99.90
23289;DHT22;11813;50.834;4.280;2023-01-23T03:54:00;3.70;99.90
23289;DHT22;11813;50.834;4.280;2023-01-23T03:56:26;3.80;99.90
23289;DHT22;11813;50.834;4.280;2023-01-23T03:58:52;3.80;99.90
23289;DHT22;11813;50.834;4.280;2023-01-23T04:01:17;3.80;99.90
23289;DHT22;11813;50.834;4.280;2023-01-23T04:03:43;3.70;99.90
23289;DHT22;11813;50.834;4.280;2023-01-23T04:06:08;3.80;99.90
23289;DHT22;11813;50.834;4.280;2023-01-23T04:08:34;3.90;99.90
23289;DHT22;11813;50.834;4.280;2023-01-23T04:11:08;3.80;99.90
23289;DHT22;11813;50.834;4.280;2023-01-23T04:13:34;3.80;99.90
23289;DHT22;11813;50.834;4.280;2023-01-23T04:16:00;3.90;99.90
23289;DHT22;11813;50.834;4.280;2023-01-23T04:18:27;3.80;99.90
23289;DHT22;11813;50.834;4.280;2023-01-23T04:20:53;3.80;99.90
23289;DHT22;11813;50.834;4.280;2023-01-23T04:23:19;3.90;99.90
23289;DHT22;11813;50.834;4.280;2023-01-23T04:25:45;3.80;99.90
23289;DHT22;11813;50.834;4.280;2023-01-23T04:28:10;3.80;99.90
23289;DHT22;11813;50.834;4.280;2023-01-23T04:30:36;3.80;99.90
23289;DHT22;11813;50.834;4.280;2023-01-23T04:33:02;4.00;99.90
23289;DHT22;11813;50.834;4.280;2023-01-23T04:35:27;4.00;99.90
23289;DHT22;11813;50.834;4.280;2023-01-23T04:37:53;4.00;99.90
23289;DHT22;11813;50.834;4.280;2023-01-23T04:40:18;4.10;99.90
23289;DHT22;11813;50.834;4.280;2023-01-23T04:42:44;4.10;99.90
23289;DHT22;11813;50.834;4.280;2023-01-23T04:45:10;3.90;99.90
23289;DHT22;11813;50.834;4.280;2023-01-23T04:47:36;3.80;99.90
23289;DHT22;11813;50.834;4.280;2023-01-23T04:50:02;3.80;99.90
23289;DHT22;11813;50.834;4.280;2023-01-23T04:52:28;3.70;99.90
23289;DHT22;11813;50.834;4.280;2023-01-23T04:54:53;3.60;99.90
23289;DHT22;11813;50.834;4.280;2023-01-23T04:57:19;3.50;99.90
23289;DHT22;11813;50.834;4.280;2023-01-23T04:59:44;3.50;99.90
23289;DHT22;11813;50.834;4.280;2023-01-23T05:02:10;3.40;99.90
23289;DHT22;11813;50.834;4.280;2023-01-23T05:04:36;3.50;99.90
23289;DHT22;11813;50.834;4.280;2023-01-23T05:07:02;3.40;99.90
23289;DHT22;11813;50.834;4.280;2023-01-23T05:09:27;3.50;99.90
23289;DHT22;11813;50.834;4.280;2023-01-23T05:11:53;3.50;99.90
23289;DHT22;11813;50.834;4.280;2023-01-23T05:14:18;3.50;99.90
23289;DHT22;11813;50.834;4.280;2023-01-23T05:16:46;3.50;99.90
23289;DHT22;11813;50.834;4.280;2023-01-23T05:19:12;3.60;99.90
23289;DHT22;11813;50.834;4.280;2023-01-23T05:21:37;3.70;99.90
23289;DHT22;11813;50.834;4.280;2023-01-23T05:24:03;3.80;99.90
23289;DHT22;11813;50.834;4.280;2023-01-23T05:26:29;3.70;99.90
23289;DHT22;11813;50.834;4.280;2023-01-23T05:28:54;3.70;99.90
23289;DHT22;11813;50.834;4.280;2023-01-23T05:31:20;3.80;99.90
23289;DHT22;11813;50.834;4.280;2023-01-23T05:33:45;3.80;99.90
23289;DHT22;11813;50.834;4.280;2023-01-23T05:36:11;3.80;99.90
23289;DHT22;11813;50.834;4.280;2023-01-23T05:38:37;3.80;99.90
23289;DHT22;11813;50.834;4.280;2023-01-23T05:41:03;3.70;99.90
23289;DHT22;11813;50.834;4.280;2023-01-23T05:43:28;3.60;99.90
23289;DHT22;11813;50.834;4.280;2023-01-23T05:45:54;3.70;99.90
23289;DHT22;11813;50.834;4.280;2023-01-23T05:48:19;3.70;99.90
23289;DHT22;11813;50.834;4.280;2023-01-23T05:50:45;3.70;99.90
23289;DHT22;11813;50.834;4.280;2023-01-23T05:53:10;3.80;99.90
23289;DHT22;11813;50.834;4.280;2023-01-23T05:55:37;3.70;99.90
23289;DHT22;11813;50.834;4.280;2023-01-23T05:58:03;3.80;99.90
23289;DHT22;11813;50.834;4.280;2023-01-23T06:00:28;3.70;99.90
23289;DHT22;11813;50.834;4.280;2023-01-23T06:02:54;3.80;99.90
23289;DHT22;11813;50.834;4.280;2023-01-23T06:05:19;3.70;99.90
23289;DHT22;11813;50.834;4.280;2023-01-23T06:07:45;3.70;99.90
23289;DHT22;11813;50.834;4.280;2023-01-23T06:10:10;3.90;99.90
23289;DHT22;11813;50.834;4.280;2023-01-23T06:12:36;4.00;99.90
23289;DHT22;11813;50.834;4.280;2023-01-23T06:15:02;3.90;99.90
23289;DHT22;11813;50.834;4.280;2023-01-23T06:17:28;3.90;99.90
23289;DHT22;11813;50.834;4.280;2023-01-23T06:19:54;3.80;99.90
23289;DHT22;11813;50.834;4.280;2023-01-23T06:22:19;3.80;99.90
23289;DHT22;11813;50.834;4.280;2023-01-23T06:24:45;3.90;99.90
23289;DHT22;11813;50.834;4.280;2023-01-23T06:27:10;4.00;99.90
23289;DHT22;11813;50.834;4.280;2023-01-23T06:29:36;4.10;99.90
23289;DHT22;11813;50.834;4.280;2023-01-23T06:32:02;4.10;99.90
23289;DHT22;11813;50.834;4.280;2023-01-23T06:34:29;4.10;99.90
23289;DHT22;11813;50.834;4.280;2023-01-23T06:36:54;4.20;99.90
23289;DHT22;11813;50.834;4.280;2023-01-23T06:39:20;4.20;99.90
23289;DHT22;11813;50.834;4.280;2023-01-23T06:41:45;4.10;99.90
23289;DHT22;11813;50.834;4.280;2023-01-23T06:44:11;4.10;99.90
23289;DHT22;11813;50.834;4.280;2023-01-23T06:46:37;4.00;99.90
23289;DHT22;11813;50.834;4.280;2023-01-23T06:49:03;3.90;99.90
23289;DHT22;11813;50.834;4.280;2023-01-23T06:51:29;4.00;99.90
23289;DHT22;11813;50.834;4.280;2023-01-23T06:53:55;4.00;99.90
23289;DHT22;11813;50.834;4.280;2023-01-23T06:56:20;3.80;99.90
23289;DHT22;11813;50.834;4.280;2023-01-23T06:58:46;3.90;99.90
23289;DHT22;11813;50.834;4.280;2023-01-23T07:01:15;3.80;99.90
23289;DHT22;11813;50.834;4.280;2023-01-23T07:03:41;3.80;99.90
23289;DHT22;11813;50.834;4.280;2023-01-23T07:06:07;3.80;99.90
23289;DHT22;11813;50.834;4.280;2023-01-23T07:08:34;3.80;99.90
23289;DHT22;11813;50.834;4.280;2023-01-23T07:11:00;3.80;99.90
23289;DHT22;11813;50.834;4.280;2023-01-23T07:13:26;3.80;99.90
23289;DHT22;11813;50.834;4.280;2023-01-23T07:15:52;3.80;99.90
23289;DHT22;11813;50.834;4.280;2023-01-23T07:18:18;3.70;99.90
23289;DHT22;11813;50.834;4.280;2023-01-23T07:20:44;3.70;99.90
23289;DHT22;11813;50.834;4.280;2023-01-23T07:23:10;3.80;99.90
23289;DHT22;11813;50.834;4.280;2023-01-23T07:25:35;3.80;99.90
23289;DHT22;11813;50.834;4.280;2023-01-23T07:28:01;3.80;99.90
23289;DHT22;11813;50.834;4.280;2023-01-23T07:30:27;3.90;99.90
23289;DHT22;11813;50.834;4.280;2023-01-23T07:32:53;3.90;99.90
23289;DHT22;11813;50.834;4.280;2023-01-23T07:35:19;4.00;99.90
23289;DHT22;11813;50.834;4.280;2023-01-23T07:37:45;3.80;99.90
23289;DHT22;11813;50.834;4.280;2023-01-23T07:40:11;3.80;99.90
23289;DHT22;11813;50.834;4.280;2023-01-23T07:42:37;3.80;99.90
23289;DHT22;11813;50.834;4.280;2023-01-23T07:45:05;3.80;99.90
23289;DHT22;11813;50.834;4.280;2023-01-23T07:47:31;3.80;99.90
23289;DHT22;11813;50.834;4.280;2023-01-23T07:49:56;3.80;99.90
23289;DHT22;11813;50.834;4.280;2023-01-23T07:52:22;3.80;99.90
23289;DHT22;11813;50.834;4.280;2023-01-23T07:54:48;3.70;99.90
23289;DHT22;11813;50.834;4.280;2023-01-23T07:57:13;3.70;99.90
23289;DHT22;11813;50.834;4.280;2023-01-23T07:59:39;3.70;99.90
23289;DHT22;11813;50.834;4.280;2023-01-23T08:02:04;3.80;99.90
23289;DHT22;11813;50.834;4.280;2023-01-23T08:04:30;3.80;99.90
23289;DHT22;11813;50.834;4.280;2023-01-23T08:06:56;3.80;99.90
23289;DHT22;11813;50.834;4.280;2023-01-23T08:09:21;3.90;99.90
23289;DHT22;11813;50.834;4.280;2023-01-23T08:11:50;4.00;99.90
23289;DHT22;11813;50.834;4.280;2023-01-23T08:14:16;4.00;99.90
23289;DHT22;11813;50.834;4.280;2023-01-23T08:16:42;4.10;99.90
23289;DHT22;11813;50.834;4.280;2023-01-23T08:19:07;4.10;99.90
23289;DHT22;11813;50.834;4.280;2023-01-23T08:21:33;4.10;99.90
23289;DHT22;11813;50.834;4.280;2023-01-23T08:24:03;4.00;99.90
23289;DHT22;11813;50.834;4.280;2023-01-23T08:26:29;4.10;99.90
23289;DHT22;11813;50.834;4.280;2023-01-23T08:28:55;4.10;99.90
23289;DHT22;11813;50.834;4.280;2023-01-23T08:31:20;4.20;99.90
23289;DHT22;11813;50.834;4.280;2023-01-23T08:33:46;4.20;99.90
23289;DHT22;11813;50.834;4.280;2023-01-23T08:36:14;4.30;99.90
23289;DHT22;11813;50.834;4.280;2023-01-23T08:38:40;4.40;99.90
23289;DHT22;11813;50.834;4.280;2023-01-23T08:41:05;4.40;99.90
23289;DHT22;11813;50.834;4.280;2023-01-23T08:43:31;4.30;99.90
23289;DHT22;11813;50.834;4.280;2023-01-23T08:45:58;4.10;99.90
23289;DHT22;11813;50.834;4.280;2023-01-23T08:48:24;4.00;99.90
23289;DHT22;11813;50.834;4.280;2023-01-23T08:50:57;4.00;99.90
23289;DHT22;11813;50.834;4.280;2023-01-23T08:53:23;4.10;99.90
23289;DHT22;11813;50.834;4.280;2023-01-23T08:55:49;4.20;99.90
23289;DHT22;11813;50.834;4.280;2023-01-23T08:58:14;4.10;99.90
23289;DHT22;11813;50.834;4.280;2023-01-23T09:00:40;4.30;99.90
23289;DHT22;11813;50.834;4.280;2023-01-23T09:03:06;4.40;99.90
23289;DHT22;11813;50.834;4.280;2023-01-23T09:05:32;4.40;99.90
23289;DHT22;11813;50.834;4.280;2023-01-23T09:07:58;4.40;99.90
23289;DHT22;11813;50.834;4.280;2023-01-23T09:10:24;4.50;99.90
23289;DHT22;11813;50.834;4.280;2023-01-23T09:12:52;4.50;99.90
23289;DHT22;11813;50.834;4.280;2023-01-23T09:15:17;4.50;99.90
23289;DHT22;11813;50.834;4.280;2023-01-23T09:17:43;4.50;99.90
23289;DHT22;11813;50.834;4.280;2023-01-23T09:20:09;4.60;99.90
23289;DHT22;11813;50.834;4.280;2023-01-23T09:22:35;4.60;99.90
23289;DHT22;11813;50.834;4.280;2023-01-23T09:25:01;4.50;99.90
23289;DHT22;11813;50.834;4.280;2023-01-23T09:27:27;4.40;99.90
23289;DHT22;11813;50.834;4.280;2023-01-23T09:29:52;4.40;99.90
23289;DHT22;11813;50.834;4.280;2023-01-23T09:32:18;4.50;99.90
23289;DHT22;11813;50.834;4.280;2023-01-23T09:34:44;4.40;99.90
23289;DHT22;11813;50.834;4.280;2023-01-23T09:37:13;4.50;99.90
23289;DHT22;11813;50.834;4.280;2023-01-23T09:39:39;4.50;99.90
23289;DHT22;11813;50.834;4.280;2023-01-23T09:42:06;4.50;99.90
23289;DHT22;11813;50.834;4.280;2023-01-23T09:44:44;4.50;99.90
23289;DHT22;11813;50.834;4.280;2023-01-23T09:50:00;4.80;99.90
23289;DHT22;11813;50.834;4.280;2023-01-23T09:52:43;4.90;99.90
23289;DHT22;11813;50.834;4.280;2023-01-23T09:55:17;5.10;99.90
23289;DHT22;11813;50.834;4.280;2023-01-23T09:57:50;5.10;99.90
23289;DHT22;11813;50.834;4.280;2023-01-23T10:00:27;5.20;99.90
23289;DHT22;11813;50.834;4.280;2023-01-23T10:02:55;5.20;99.90
23289;DHT22;11813;50.834;4.280;2023-01-23T10:11:07;5.10;99.90
23289;DHT22;11813;50.834;4.280;2023-01-23T10:24:54;4.60;99.90
23289;DHT22;11813;50.834;4.280;2023-01-23T10:27:31;4.70;99.90
23289;DHT22;11813;50.834;4.280;2023-01-23T10:30:02;4.90;99.90
23289;DHT22;11813;50.834;4.280;2023-01-23T10:32:31;5.00;99.90
23289;DHT22;11813;50.834;4.280;2023-01-23T10:35:11;5.10;99.90
23289;DHT22;11813;50.834;4.280;2023-01-23T10:38:04;5.20;99.90
23289;DHT22;11813;50.834;4.280;2023-01-23T10:40:30;5.20;99.90
23289;DHT22;11813;50.834;4.280;2023-01-23T10:43:17;5.30;99.90
23289;DHT22;11813;50.834;4.280;2023-01-23T10:45:45;5.30;99.90
23289;DHT22;11813;50.834;4.280;2023-01-23T10:50:54;5.50;99.90
23289;DHT22;11813;50.834;4.280;2023-01-23T10:53:20;5.40;99.90
23289;DHT22;11813;50.834;4.280;2023-01-23T10:55:47;5.50;99.90
23289;DHT22;11813;50.834;4.280;2023-01-23T10:58:32;5.70;99.90
23289;DHT22;11813;50.834;4.280;2023-01-23T11:01:01;5.70;99.90
23289;DHT22;11813;50.834;4.280;2023-01-23T11:03:32;5.70;99.90
23289;DHT22;11813;50.834;4.280;2023-01-23T11:06:05;5.70;99.90
23289;DHT22;11813;50.834;4.280;2023-01-23T11:08:47;5.70;99.90
23289;DHT22;11813;50.834;4.280;2023-01-23T11:13:40;5.50;99.90
23289;DHT22;11813;50.834;4.280;2023-01-23T11:16:13;5.50;99.90
23289;DHT22;11813;50.834;4.280;2023-01-23T11:18:41;5.60;99.90
23289;DHT22;11813;50.834;4.280;2023-01-23T11:22:01;5.60;99.90
23289;DHT22;11813;50.834;4.280;2023-01-23T11:24:21;5.60;99.90
23289;DHT22;11813;50.834;4.280;2023-01-23T11:32:40;5.70;99.90
23289;DHT22;11813;50.834;4.280;2023-01-23T11:35:15;5.60;99.90
23289;DHT22;11813;50.834;4.280;2023-01-23T11:37:43;5.60;99.90
23289;DHT22;11813;50.834;4.280;2023-01-23T11:40:26;5.60;99.90
23289;DHT22;11813;50.834;4.280;2023-01-23T11:42:53;5.60;99.90
23289;DHT22;11813;50.834;4.280;2023-01-23T11:50:54;5.90;99.90
23289;DHT22;11813;50.834;4.280;2023-01-23T11:53:35;5.90;99.90
23289;DHT22;11813;50.834;4.280;2023-01-23T11:57:06;6.00;99.90
23289;DHT22;11813;50.834;4.280;2023-01-23T12:07:19;5.60;99.90
23289;DHT22;11813;50.834;4.280;2023-01-23T12:12:52;5.60;99.90
23289;DHT22;11813;50.834;4.280;2023-01-23T12:18:16;5.80;99.90
23289;DHT22;11813;50.834;4.280;2023-01-23T12:26:19;5.70;99.90
23289;DHT22;11813;50.834;4.280;2023-01-23T12:31:32;5.80;99.90
23289;DHT22;11813;50.834;4.280;2023-01-23T12:42:41;5.70;99.90
23289;DHT22;11813;50.834;4.280;2023-01-23T12:50:37;5.90;99.90
23289;DHT22;11813;50.834;4.280;2023-01-23T12:53:09;6.00;99.90
23289;DHT22;11813;50.834;4.280;2023-01-23T12:58:23;5.80;99.90
23289;DHT22;11813;50.834;4.280;2023-01-23T13:01:19;5.70;99.90
23289;DHT22;11813;50.834;4.280;2023-01-23T13:09:45;5.80;99.90
23289;DHT22;11813;50.834;4.280;2023-01-23T13:12:20;5.70;99.90
23289;DHT22;11813;50.834;4.280;2023-01-23T13:14:47;5.80;99.90
23289;DHT22;11813;50.834;4.280;2023-01-23T13:17:45;5.60;99.90
23289;DHT22;11813;50.834;4.280;2023-01-23T13:23:17;5.70;99.90
23289;DHT22;11813;50.834;4.280;2023-01-23T13:25:43;5.70;99.90
23289;DHT22;11813;50.834;4.280;2023-01-23T13:31:01;5.80;99.90
23289;DHT22;11813;50.834;4.280;2023-01-23T13:35:53;5.70;99.90
23289;DHT22;11813;50.834;4.280;2023-01-23T13:43:43;5.60;99.90
23289;DHT22;11813;50.834;4.280;2023-01-23T13:52:25;5.50;99.90
23289;DHT22;11813;50.834;4.280;2023-01-23T13:55:25;5.60;99.90
23289;DHT22;11813;50.834;4.280;2023-01-23T13:58:21;5.60;99.90
23289;DHT22;11813;50.834;4.280;2023-01-23T14:01:08;5.40;99.90
23289;DHT22;11813;50.834;4.280;2023-01-23T14:04:05;5.50;99.90
23289;DHT22;11813;50.834;4.280;2023-01-23T14:06:49;5.50;99.90
23289;DHT22;11813;50.834;4.280;2023-01-23T14:09:27;5.60;99.90
23289;DHT22;11813;50.834;4.280;2023-01-23T14:12:00;5.60;99.90
23289;DHT22;11813;50.834;4.280;2023-01-23T14:14:32;5.60;99.90
23289;DHT22;11813;50.834;4.280;2023-01-23T14:17:16;5.70;99.90
23289;DHT22;11813;50.834;4.280;2023-01-23T14:19:59;5.80;99.90
23289;DHT22;11813;50.834;4.280;2023-01-23T14:22:29;5.80;99.90
23289;DHT22;11813;50.834;4.280;2023-01-23T14:24:55;5.90;99.90
23289;DHT22;11813;50.834;4.280;2023-01-23T14:30:00;5.80;99.90
23289;DHT22;11813;50.834;4.280;2023-01-23T14:32:29;5.70;99.90
23289;DHT22;11813;50.834;4.280;2023-01-23T14:34:55;5.50;99.90
23289;DHT22;11813;50.834;4.280;2023-01-23T14:37:21;5.50;99.90
23289;DHT22;11813;50.834;4.280;2023-01-23T14:39:47;5.40;99.90
23289;DHT22;11813;50.834;4.280;2023-01-23T14:42:23;5.50;99.90
23289;DHT22;11813;50.834;4.280;2023-01-23T14:44:50;5.50;99.90
23289;DHT22;11813;50.834;4.280;2023-01-23T14:47:38;5.50;99.90
23289;DHT22;11813;50.834;4.280;2023-01-23T14:50:10;5.50;99.90
23289;DHT22;11813;50.834;4.280;2023-01-23T14:52:40;5.60;99.90
23289;DHT22;11813;50.834;4.280;2023-01-23T14:55:22;5.60;99.90
23289;DHT22;11813;50.834;4.280;2023-01-23T14:57:49;5.60;99.90
23289;DHT22;11813;50.834;4.280;2023-01-23T15:00:16;5.50;99.90
23289;DHT22;11813;50.834;4.280;2023-01-23T15:02:43;5.40;99.90
23289;DHT22;11813;50.834;4.280;2023-01-23T15:13:27;5.30;99.90
23289;DHT22;11813;50.834;4.280;2023-01-23T15:15:57;5.30;99.90
23289;DHT22;11813;50.834;4.280;2023-01-23T15:18:28;5.50;99.90
23289;DHT22;11813;50.834;4.280;2023-01-23T15:20:56;5.50;99.90
23289;DHT22;11813;50.834;4.280;2023-01-23T15:23:27;5.50;99.90
23289;DHT22;11813;50.834;4.280;2023-01-23T15:28:55;5.60;99.90
23289;DHT22;11813;50.834;4.280;2023-01-23T15:31:34;5.40;99.90
23289;DHT22;11813;50.834;4.280;2023-01-23T15:36:50;5.40;99.90
23289;DHT22;11813;50.834;4.280;2023-01-23T15:39:23;5.50;99.90
23289;DHT22;11813;50.834;4.280;2023-01-23T15:42:20;5.30;99.90
23289;DHT22;11813;50.834;4.280;2023-01-23T15:44:47;5.30;99.90
23289;DHT22;11813;50.834;4.280;2023-01-23T15:47:13;5.40;99.90
23289;DHT22;11813;50.834;4.280;2023-01-23T15:49:39;5.30;99.90
23289;DHT22;11813;50.834;4.280;2023-01-23T15:52:24;5.20;99.90
23289;DHT22;11813;50.834;4.280;2023-01-23T15:54:54;5.10;99.90
23289;DHT22;11813;50.834;4.280;2023-01-23T15:57:20;5.10;99.90
23289;DHT22;11813;50.834;4.280;2023-01-23T15:59:46;5.10;99.90
23289;DHT22;11813;50.834;4.280;2023-01-23T16:02:30;5.10;99.90
23289;DHT22;11813;50.834;4.280;2023-01-23T16:04:55;4.90;99.90
23289;DHT22;11813;50.834;4.280;2023-01-23T16:07:33;4.80;99.90
23289;DHT22;11813;50.834;4.280;2023-01-23T16:09:59;4.70;99.90
23289;DHT22;11813;50.834;4.280;2023-01-23T16:12:28;4.60;99.90
23289;DHT22;11813;50.834;4.280;2023-01-23T16:14:55;4.60;99.90
23289;DHT22;11813;50.834;4.280;2023-01-23T16:17:21;4.60;99.90
23289;DHT22;11813;50.834;4.280;2023-01-23T16:19:46;4.50;99.90
23289;DHT22;11813;50.834;4.280;2023-01-23T16:22:15;4.50;99.90
23289;DHT22;11813;50.834;4.280;2023-01-23T16:24:42;4.50;99.90
23289;DHT22;11813;50.834;4.280;2023-01-23T16:27:14;4.60;99.90
23289;DHT22;11813;50.834;4.280;2023-01-23T16:29:41;4.60;99.90
23289;DHT22;11813;50.834;4.280;2023-01-23T16:32:08;4.60;99.90
23289;DHT22;11813;50.834;4.280;2023-01-23T16:34:34;4.60;99.90
23289;DHT22;11813;50.834;4.280;2023-01-23T16:37:00;4.60;99.90
23289;DHT22;11813;50.834;4.280;2023-01-23T16:39:30;4.40;99.90
23289;DHT22;11813;50.834;4.280;2023-01-23T16:41:56;4.40;99.90
23289;DHT22;11813;50.834;4.280;2023-01-23T16:44:22;4.40;99.90
23289;DHT22;11813;50.834;4.280;2023-01-23T16:46:49;4.40;99.90
23289;DHT22;11813;50.834;4.280;2023-01-23T16:49:15;4.40;99.90
23289;DHT22;11813;50.834;4.280;2023-01-23T16:51:45;4.50;99.90
23289;DHT22;11813;50.834;4.280;2023-01-23T16:54:18;4.50;99.90
23289;DHT22;11813;50.834;4.280;2023-01-23T16:56:44;4.40;99.90
23289;DHT22;11813;50.834;4.280;2023-01-23T16:59:16;4.50;99.90
23289;DHT22;11813;50.834;4.280;2023-01-23T17:01:46;4.50;99.90
23289;DHT22;11813;50.834;4.280;2023-01-23T17:04:15;4.50;99.90
23289;DHT22;11813;50.834;4.280;2023-01-23T17:06:41;4.50;99.90
23289;DHT22;11813;50.834;4.280;2023-01-23T17:09:10;4.40;99.90
23289;DHT22;11813;50.834;4.280;2023-01-23T17:11:38;4.40;99.90
23289;DHT22;11813;50.834;4.280;2023-01-23T17:14:08;4.60;99.90
23289;DHT22;11813;50.834;4.280;2023-01-23T17:16:36;4.60;99.90
23289;DHT22;11813;50.834;4.280;2023-01-23T17:19:05;4.60;99.90
23289;DHT22;11813;50.834;4.280;2023-01-23T17:21:33;4.50;99.90
23289;DHT22;11813;50.834;4.280;2023-01-23T17:23:59;4.60;99.90
23289;DHT22;11813;50.834;4.280;2023-01-23T17:26:25;4.50;99.90
23289;DHT22;11813;50.834;4.280;2023-01-23T17:28:50;4.50;99.90
23289;DHT22;11813;50.834;4.280;2023-01-23T17:31:21;4.70;99.90
23289;DHT22;11813;50.834;4.280;2023-01-23T17:33:47;4.70;99.90
23289;DHT22;11813;50.834;4.280;2023-01-23T17:36:13;4.60;99.90
23289;DHT22;11813;50.834;4.280;2023-01-23T17:38:39;4.70;99.90
23289;DHT22;11813;50.834;4.280;2023-01-23T17:41:11;4.60;99.90
23289;DHT22;11813;50.834;4.280;2023-01-23T17:43:36;4.70;99.90
23289;DHT22;11813;50.834;4.280;2023-01-23T17:46:03;4.90;99.90
23289;DHT22;11813;50.834;4.280;2023-01-23T17:48:30;4.90;99.90
23289;DHT22;11813;50.834;4.280;2023-01-23T17:50:57;4.80;99.90
23289;DHT22;11813;50.834;4.280;2023-01-23T17:53:24;4.70;99.90
23289;DHT22;11813;50.834;4.280;2023-01-23T17:55:49;4.60;99.90
23289;DHT22;11813;50.834;4.280;2023-01-23T17:58:18;4.70;99.90
23289;DHT22;11813;50.834;4.280;2023-01-23T18:00:47;4.70;99.90
23289;DHT22;11813;50.834;4.280;2023-01-23T18:03:20;4.70;99.90